createdAt,value
2019-02-11T00:02:18.620Z,1.13
2019-02-11T00:04:46.014Z,0.60
2019-02-11T00:07:13.431Z,0.90
2019-02-11T00:09:40.810Z,0.70
2019-02-11T00:12:08.215Z,0.70
2019-02-11T00:14:35.591Z,0.70
2019-02-11T00:17:03.100Z,0.60
2019-02-11T00:19:30.459Z,0.70
2019-02-11T00:21:57.845Z,0.50
2019-02-11T00:24:25.261Z,0.70
2019-02-11T00:26:52.645Z,0.70
2019-02-11T00:29:20.049Z,0.70
2019-02-11T00:31:47.541Z,0.73
2019-02-11T00:34:14.943Z,0.57
2019-02-11T00:36:42.326Z,0.80
2019-02-11T00:39:09.734Z,0.77
2019-02-11T00:41:37.121Z,0.90
2019-02-11T00:44:04.534Z,0.80
2019-02-11T00:46:31.922Z,0.80
2019-02-11T00:48:59.362Z,0.60
2019-02-11T00:51:26.749Z,0.90
2019-02-11T00:53:54.175Z,0.70
2019-02-11T00:56:21.602Z,0.80
2019-02-11T00:58:49.089Z,1.03
2019-02-11T01:01:16.484Z,0.80
2019-02-11T01:03:43.903Z,0.90
2019-02-11T01:06:11.285Z,0.90
2019-02-11T01:08:38.715Z,0.60
2019-02-11T01:11:06.171Z,0.90
2019-02-11T01:13:33.584Z,0.70
2019-02-11T01:16:00.971Z,0.60
2019-02-11T01:18:28.378Z,0.80
2019-02-11T01:20:55.764Z,0.80
2019-02-11T01:23:23.186Z,0.90
2019-02-11T01:25:50.577Z,1.02
2019-02-11T01:28:17.969Z,1.13
2019-02-11T01:30:45.387Z,0.80
2019-02-11T01:33:12.777Z,0.67
2019-02-11T01:35:40.194Z,1.33
2019-02-11T01:38:07.577Z,1.00
2019-02-11T01:40:34.987Z,0.73
2019-02-11T01:43:02.367Z,0.80
2019-02-11T01:45:29.867Z,0.80
2019-02-11T01:47:57.246Z,0.70
2019-02-11T01:50:24.666Z,0.67
2019-02-11T01:52:52.058Z,0.90
2019-02-11T01:55:19.474Z,0.70
2019-02-11T01:57:46.857Z,0.80
2019-02-11T02:00:14.275Z,0.60
2019-02-11T02:02:41.723Z,0.70
2019-02-11T02:05:09.418Z,0.70
2019-02-11T02:07:36.806Z,1.13
2019-02-11T02:10:05.971Z,0.80
2019-02-11T02:12:33.340Z,1.03
2019-02-11T02:15:00.765Z,0.80
2019-02-11T02:17:28.201Z,0.70
2019-02-11T02:19:55.694Z,0.70
2019-02-11T02:22:23.094Z,0.70
2019-02-11T02:24:50.510Z,0.70
2019-02-11T02:27:17.937Z,1.00
2019-02-11T02:29:45.342Z,0.90
2019-02-11T02:32:12.730Z,1.33
2019-02-11T02:34:40.141Z,0.60
2019-02-11T02:37:07.662Z,0.87
2019-02-11T02:39:35.046Z,0.60
2019-02-11T02:42:02.492Z,1.10
2019-02-11T02:44:30.033Z,1.03
2019-02-11T02:46:57.451Z,0.90
2019-02-11T02:49:24.831Z,0.70
2019-02-11T02:51:52.250Z,1.00
2019-02-11T02:54:19.637Z,1.00
2019-02-11T02:56:47.046Z,0.70
2019-02-11T02:59:14.461Z,0.87
2019-02-11T03:01:41.883Z,0.70
2019-02-11T03:04:09.629Z,0.80
2019-02-11T03:06:37.241Z,0.90
2019-02-11T03:09:05.060Z,0.80
2019-02-11T03:11:32.501Z,0.60
2019-02-11T03:14:05.702Z,0.80
2019-02-11T03:16:28.958Z,1.00
2019-02-11T03:18:56.385Z,1.10
2019-02-11T03:21:23.801Z,1.00
2019-02-11T03:23:51.185Z,0.90
2019-02-11T03:26:18.600Z,0.90
2019-02-11T03:28:45.991Z,1.00
2019-02-11T03:31:13.501Z,0.70
2019-02-11T03:33:40.890Z,0.80
2019-02-11T03:36:08.307Z,0.80
2019-02-11T03:38:35.685Z,0.87
2019-02-11T03:41:03.099Z,1.00
2019-02-11T03:43:30.476Z,0.90
2019-02-11T03:45:57.899Z,0.90
2019-02-11T03:48:25.355Z,1.00
2019-02-11T03:50:52.841Z,0.80
2019-02-11T03:53:21.126Z,1.00
2019-02-11T03:55:48.619Z,1.23
2019-02-11T03:58:15.992Z,1.03
2019-02-11T04:00:43.378Z,0.80
2019-02-11T04:03:10.854Z,0.93
2019-02-11T04:05:38.272Z,0.60
2019-02-11T04:08:05.765Z,1.00
2019-02-11T04:10:33.192Z,1.00
2019-02-11T04:13:00.606Z,1.00
2019-02-11T04:15:28.159Z,1.25
2019-02-11T04:17:55.612Z,0.80
2019-02-11T04:20:22.954Z,0.70
2019-02-11T04:22:50.358Z,0.90
2019-02-11T04:25:17.745Z,0.83
2019-02-11T04:27:45.149Z,1.80
2019-02-11T04:30:12.600Z,0.70
2019-02-11T04:32:40.025Z,0.93
2019-02-11T04:35:07.573Z,0.90
2019-02-11T04:37:35.054Z,0.77
2019-02-11T04:40:02.725Z,1.10
2019-02-11T04:42:30.103Z,1.00
2019-02-11T04:44:57.486Z,1.03
2019-02-11T04:47:24.904Z,1.00
2019-02-11T04:49:52.290Z,0.93
2019-02-11T04:52:19.768Z,1.10
2019-02-11T04:54:47.158Z,1.20
2019-02-11T04:57:14.567Z,1.10
2019-02-11T04:59:41.948Z,1.10
2019-02-11T05:02:09.371Z,1.20
2019-02-11T05:04:36.751Z,1.40
2019-02-11T05:07:04.235Z,1.50
2019-02-11T05:09:31.617Z,1.10
2019-02-11T05:11:59.034Z,0.80
2019-02-11T05:14:26.418Z,1.30
2019-02-11T05:16:53.855Z,0.80
2019-02-11T05:19:21.202Z,1.00
2019-02-11T05:21:48.628Z,1.13
2019-02-11T05:24:16.043Z,1.13
2019-02-11T05:26:43.505Z,1.10
2019-02-11T05:29:10.907Z,1.03
2019-02-11T05:31:38.316Z,0.93
2019-02-11T05:34:05.702Z,1.40
2019-02-11T05:36:33.170Z,1.13
2019-02-11T05:39:00.580Z,1.50
2019-02-11T05:41:27.971Z,0.90
2019-02-11T05:43:55.387Z,1.00
2019-02-11T05:46:22.763Z,1.40
2019-02-11T05:48:50.172Z,1.23
2019-02-11T05:51:17.559Z,1.37
2019-02-11T05:53:44.968Z,1.80
2019-02-11T05:56:12.359Z,1.80
2019-02-11T05:58:39.769Z,2.27
2019-02-11T06:01:07.270Z,2.10
2019-02-11T06:03:34.652Z,3.00
2019-02-11T06:06:02.118Z,1.70
2019-02-11T06:08:29.534Z,2.30
2019-02-11T06:10:56.910Z,1.60
2019-02-11T06:13:24.322Z,2.40
2019-02-11T06:15:51.706Z,2.13
2019-02-11T06:18:19.118Z,2.00
2019-02-11T06:20:46.511Z,1.70
2019-02-11T06:23:13.916Z,1.20
2019-02-11T06:25:41.311Z,1.73
2019-02-11T06:28:08.725Z,1.80
2019-02-11T06:30:36.115Z,1.67
2019-02-11T06:33:03.509Z,1.20
2019-02-11T06:35:30.915Z,1.53
2019-02-11T06:37:58.293Z,1.53
2019-02-11T06:40:25.733Z,1.40
2019-02-11T06:42:53.112Z,1.20
2019-02-11T06:45:20.530Z,1.60
2019-02-11T06:47:47.906Z,1.20
2019-02-11T06:50:15.790Z,1.60
2019-02-11T06:52:43.227Z,1.50
2019-02-11T06:55:11.446Z,2.00
2019-02-11T06:57:38.890Z,1.27
2019-02-11T07:00:10.442Z,2.77
2019-02-11T07:02:37.866Z,2.20
2019-02-11T07:05:06.158Z,2.20
2019-02-11T07:07:33.550Z,1.40
2019-02-11T07:10:00.961Z,1.90
2019-02-11T07:12:28.345Z,1.87
2019-02-11T07:14:55.761Z,1.17
2019-02-11T07:17:23.202Z,1.53
2019-02-11T07:19:50.570Z,1.40
2019-02-11T07:22:17.963Z,1.47
2019-02-11T07:24:45.386Z,1.30
2019-02-11T07:27:12.779Z,1.57
2019-02-11T07:29:40.245Z,1.50
2019-02-11T07:32:07.634Z,1.50
2019-02-11T07:34:35.045Z,1.40
2019-02-11T07:37:02.437Z,1.20
2019-02-11T07:39:29.916Z,1.17
2019-02-11T07:42:07.637Z,1.70
2019-02-11T07:44:36.218Z,1.47
2019-02-11T07:47:03.692Z,1.80
2019-02-11T07:49:31.113Z,1.57
2019-02-11T07:51:58.506Z,1.20
2019-02-11T07:54:26.514Z,1.32
2019-02-11T07:56:53.903Z,1.07
2019-02-11T07:59:21.308Z,1.10
2019-02-11T08:01:48.690Z,1.30
2019-02-11T08:04:16.111Z,1.43
2019-02-11T08:06:43.498Z,1.70
2019-02-11T08:09:11.558Z,1.53
2019-02-11T08:11:39.017Z,1.10
2019-02-11T08:14:06.474Z,1.60
2019-02-11T08:16:33.893Z,1.30
2019-02-11T08:19:01.275Z,1.23
2019-02-11T08:21:28.685Z,1.20
2019-02-11T08:23:56.073Z,1.47
2019-02-11T08:26:23.479Z,1.10
2019-02-11T08:28:50.865Z,1.77
2019-02-11T08:31:18.292Z,1.60
2019-02-11T08:33:45.764Z,1.77
2019-02-11T08:36:13.259Z,1.43
2019-02-11T08:38:40.647Z,1.07
2019-02-11T08:41:08.066Z,1.43
2019-02-11T08:43:35.445Z,1.57
2019-02-11T08:46:02.978Z,1.00
2019-02-11T08:48:30.414Z,1.47
2019-02-11T08:50:57.842Z,1.37
2019-02-11T08:53:25.320Z,1.57
2019-02-11T08:55:52.736Z,0.87
2019-02-11T08:58:20.113Z,1.40
2019-02-11T09:00:47.530Z,1.10
2019-02-11T09:03:15.185Z,1.90
2019-02-11T09:05:42.608Z,1.80
2019-02-11T09:08:10.060Z,1.77
2019-02-11T09:10:37.513Z,2.00
2019-02-11T09:13:04.874Z,1.10
2019-02-11T09:15:32.266Z,1.20
2019-02-11T09:17:59.696Z,1.30
2019-02-11T09:20:27.128Z,2.20
2019-02-11T09:22:54.520Z,1.60
2019-02-11T09:25:21.900Z,1.33
2019-02-11T09:27:49.318Z,2.00
2019-02-11T09:30:17.282Z,1.27
2019-02-11T09:32:44.694Z,1.70
2019-02-11T09:35:12.162Z,1.07
2019-02-11T09:37:39.566Z,0.97
2019-02-11T09:40:08.494Z,1.67
2019-02-11T09:42:35.973Z,1.30
2019-02-11T09:45:05.786Z,1.23
2019-02-11T09:47:33.199Z,1.10
2019-02-11T09:50:08.137Z,1.13
2019-02-11T09:52:35.551Z,1.70
2019-02-11T09:55:03.278Z,1.40
2019-02-11T09:57:30.694Z,1.87
2019-02-11T09:59:58.082Z,1.17
2019-02-11T10:02:25.495Z,1.17
2019-02-11T10:04:52.956Z,1.43
2019-02-11T10:07:20.357Z,1.70
2019-02-11T10:09:47.991Z,1.40
2019-02-11T10:12:21.263Z,1.33
2019-02-11T10:14:44.393Z,1.33
2019-02-11T10:17:11.808Z,1.27
2019-02-11T10:19:39.198Z,1.20
2019-02-11T10:22:06.619Z,1.40
2019-02-11T10:24:34.006Z,1.00
2019-02-11T10:27:01.548Z,1.77
2019-02-11T10:29:28.927Z,1.30
2019-02-11T10:31:56.342Z,1.30
2019-02-11T10:34:23.732Z,1.43
2019-02-11T10:36:51.140Z,1.50
2019-02-11T10:39:18.518Z,1.00
2019-02-11T10:41:45.939Z,1.07
2019-02-11T10:44:13.394Z,1.00
2019-02-11T10:46:40.797Z,1.40
2019-02-11T10:49:08.196Z,1.30
2019-02-11T10:51:35.667Z,1.57
2019-02-11T10:54:03.068Z,1.10
2019-02-11T10:56:30.452Z,0.90
2019-02-11T10:58:57.871Z,1.17
2019-02-11T11:01:25.323Z,1.20
2019-02-11T11:03:52.743Z,1.20
2019-02-11T11:06:20.126Z,1.20
2019-02-11T11:08:47.535Z,0.90
2019-02-11T11:11:14.994Z,1.40
2019-02-11T11:13:42.403Z,1.00
2019-02-11T11:16:09.857Z,1.10
2019-02-11T11:18:37.265Z,1.40
2019-02-11T11:21:05.691Z,1.60
2019-02-11T11:23:33.097Z,1.30
2019-02-11T11:26:00.493Z,1.33
2019-02-11T11:28:27.899Z,1.50
2019-02-11T11:30:55.278Z,1.30
2019-02-11T11:33:22.700Z,1.17
2019-02-11T11:35:50.159Z,1.27
2019-02-11T11:38:17.573Z,1.23
2019-02-11T11:40:45.026Z,1.00
2019-02-11T11:43:12.439Z,1.80
2019-02-11T11:45:39.898Z,1.50
2019-02-11T11:48:07.287Z,2.10
2019-02-11T11:50:34.711Z,3.80
2019-02-11T11:53:02.097Z,3.67
2019-02-11T11:55:29.617Z,2.97
2019-02-11T11:57:56.997Z,1.93
2019-02-11T12:00:25.951Z,2.70
2019-02-11T12:03:01.507Z,2.17
2019-02-11T12:05:22.666Z,2.00
2019-02-11T12:07:50.137Z,2.90
2019-02-11T12:10:17.611Z,2.30
2019-02-11T12:12:45.075Z,2.60
2019-02-11T12:15:13.667Z,2.22
2019-02-11T12:17:41.526Z,2.10
2019-02-11T12:20:10.103Z,1.93
2019-02-11T12:22:37.566Z,3.12
2019-02-11T12:25:06.849Z,2.40
2019-02-11T12:27:34.247Z,2.15
2019-02-11T12:30:02.015Z,1.77
2019-02-11T12:32:29.447Z,2.60
2019-02-11T12:34:56.859Z,1.90
2019-02-11T12:37:24.242Z,2.40
2019-02-11T12:39:51.661Z,2.10
2019-02-11T12:42:19.048Z,1.83
2019-02-11T12:44:46.454Z,2.00
2019-02-11T12:47:15.140Z,1.90
2019-02-11T12:49:42.776Z,2.20
2019-02-11T12:52:10.167Z,1.80
2019-02-11T12:54:37.586Z,2.10
2019-02-11T12:57:04.962Z,2.20
2019-02-11T12:59:32.420Z,1.73
2019-02-11T13:01:59.831Z,2.00
2019-02-11T13:04:27.203Z,1.83
2019-02-11T13:06:54.622Z,2.47
2019-02-11T13:09:22.013Z,2.10
2019-02-11T13:11:49.426Z,1.80
2019-02-11T13:14:16.806Z,2.20
2019-02-11T13:16:44.209Z,1.90
2019-02-11T13:19:11.606Z,1.87
2019-02-11T13:21:39.025Z,1.90
2019-02-11T13:24:06.429Z,2.30
2019-02-11T13:26:33.833Z,2.00
2019-02-11T13:29:01.221Z,1.87
2019-02-11T13:31:28.624Z,2.07
2019-02-11T13:33:56.270Z,2.37
2019-02-11T13:36:23.667Z,2.37
2019-02-11T13:38:51.055Z,2.13
2019-02-11T13:41:18.474Z,2.03
2019-02-11T13:43:47.518Z,2.17
2019-02-11T13:46:14.960Z,1.40
2019-02-11T13:48:42.406Z,3.13
2019-02-11T13:51:09.835Z,2.07
2019-02-11T13:53:37.225Z,1.90
2019-02-11T13:56:06.049Z,1.60
2019-02-11T13:58:33.501Z,1.90
2019-02-11T14:01:00.994Z,1.43
2019-02-11T14:03:28.451Z,1.40
2019-02-11T14:05:56.065Z,1.50
2019-02-11T14:08:23.419Z,1.75
2019-02-11T14:10:50.835Z,1.30
2019-02-11T14:13:18.495Z,1.63
2019-02-11T14:15:45.907Z,1.73
2019-02-11T14:18:15.244Z,2.27
2019-02-11T14:20:42.380Z,1.00
2019-02-11T14:23:09.828Z,1.30
2019-02-11T14:25:44.140Z,1.40
2019-02-11T14:28:06.352Z,1.40
2019-02-11T14:30:33.770Z,1.50
2019-02-11T14:33:01.231Z,1.90
2019-02-11T14:35:28.668Z,1.57
2019-02-11T14:37:56.086Z,1.30
2019-02-11T14:40:23.469Z,1.73
2019-02-11T14:42:50.879Z,1.43
2019-02-11T14:45:18.866Z,1.77
2019-02-11T14:47:46.415Z,1.30
2019-02-11T14:50:13.890Z,1.67
2019-02-11T14:52:41.285Z,1.40
2019-02-11T14:55:09.603Z,1.43
2019-02-11T14:57:37.087Z,1.37
2019-02-11T15:00:07.646Z,1.40
2019-02-11T15:02:35.058Z,1.60
2019-02-11T15:05:02.438Z,1.57
2019-02-11T15:07:29.841Z,1.20
2019-02-11T15:09:57.217Z,1.47
2019-02-11T15:12:24.633Z,1.20
2019-02-11T15:14:52.017Z,1.70
2019-02-11T15:17:19.447Z,1.60
2019-02-11T15:19:46.814Z,1.10
2019-02-11T15:22:14.248Z,1.53
2019-02-11T15:24:41.618Z,1.57
2019-02-11T15:27:16.908Z,1.40
2019-02-11T15:29:38.058Z,2.27
2019-02-11T15:32:05.471Z,1.40
2019-02-11T15:34:32.855Z,1.50
2019-02-11T15:37:00.270Z,1.20
2019-02-11T15:39:27.651Z,1.80
2019-02-11T15:41:55.061Z,1.10
2019-02-11T15:44:22.451Z,1.50
2019-02-11T15:46:49.933Z,1.50
2019-02-11T15:49:17.319Z,1.10
2019-02-11T15:51:44.734Z,1.50
2019-02-11T15:54:12.162Z,1.40
2019-02-11T15:56:39.549Z,1.20
2019-02-11T15:59:09.105Z,0.93
2019-02-11T16:01:35.988Z,1.10
2019-02-11T16:04:03.437Z,1.57
2019-02-11T16:06:37.931Z,1.20
2019-02-11T16:09:04.581Z,2.17
2019-02-11T16:11:28.949Z,1.47
2019-02-11T16:13:56.370Z,1.40
2019-02-11T16:16:23.749Z,1.20
2019-02-11T16:18:51.961Z,1.43
2019-02-11T16:21:19.453Z,1.07
2019-02-11T16:23:46.878Z,1.30
2019-02-11T16:26:14.337Z,1.23
2019-02-11T16:28:41.737Z,1.10
2019-02-11T16:31:09.131Z,1.00
2019-02-11T16:33:36.544Z,1.50
2019-02-11T16:36:03.998Z,1.13
2019-02-11T16:38:31.418Z,1.10
2019-02-11T16:40:58.813Z,1.10
2019-02-11T16:43:26.258Z,1.27
2019-02-11T16:45:53.681Z,1.20
2019-02-11T16:48:21.089Z,1.67
2019-02-11T16:50:48.494Z,0.90
2019-02-11T16:53:15.939Z,1.30
2019-02-11T16:55:43.329Z,1.20
2019-02-11T16:58:10.732Z,1.53
2019-02-11T17:00:38.195Z,1.30
2019-02-11T17:03:05.606Z,1.33
2019-02-11T17:05:32.991Z,1.10
2019-02-11T17:08:00.404Z,1.23
2019-02-11T17:10:27.854Z,1.40
2019-02-11T17:12:55.273Z,1.20
2019-02-11T17:15:22.659Z,1.50
2019-02-11T17:17:50.075Z,1.40
2019-02-11T17:20:17.735Z,1.30
2019-02-11T17:22:45.415Z,1.67
2019-02-11T17:25:13.269Z,1.45
2019-02-11T17:27:40.751Z,1.30
2019-02-11T17:30:09.894Z,1.57
2019-02-11T17:32:37.307Z,1.57
2019-02-11T17:35:05.734Z,1.53
2019-02-11T17:37:33.189Z,1.33
2019-02-11T17:40:00.581Z,1.37
2019-02-11T17:42:27.996Z,1.57
2019-02-11T17:44:55.388Z,1.50
2019-02-11T17:47:22.774Z,1.17
2019-02-11T17:49:50.258Z,1.80
2019-02-11T17:52:17.809Z,1.40
2019-02-11T17:54:45.229Z,2.27
2019-02-11T17:57:12.700Z,1.70
2019-02-11T17:59:40.149Z,1.53
2019-02-11T18:02:09.183Z,2.00
2019-02-11T18:04:36.597Z,2.07
2019-02-11T18:07:03.977Z,1.60
2019-02-11T18:09:31.406Z,1.30
2019-02-11T18:11:58.860Z,1.30
2019-02-11T18:14:26.274Z,1.70
2019-02-11T18:16:53.725Z,1.77
2019-02-11T18:19:26.302Z,1.97
2019-02-11T18:21:50.249Z,2.03
2019-02-11T18:24:17.671Z,1.80
2019-02-11T18:26:45.054Z,1.60
2019-02-11T18:29:12.467Z,1.43
2019-02-11T18:31:39.855Z,1.70
2019-02-11T18:34:07.272Z,1.97
2019-02-11T18:36:34.654Z,1.70
2019-02-11T18:39:02.076Z,1.80
2019-02-11T18:41:29.456Z,2.00
2019-02-11T18:43:56.866Z,2.00
2019-02-11T18:46:24.256Z,1.97
2019-02-11T18:48:51.666Z,2.10
2019-02-11T18:51:19.062Z,2.17
2019-02-11T18:53:46.485Z,3.07
2019-02-11T18:56:13.865Z,2.20
2019-02-11T18:58:41.324Z,1.97
2019-02-11T19:01:08.709Z,2.60
2019-02-11T19:03:36.122Z,1.90
2019-02-11T19:06:03.506Z,1.40
2019-02-11T19:08:30.915Z,1.73
2019-02-11T19:10:58.364Z,1.50
2019-02-11T19:13:25.752Z,1.73
2019-02-11T19:15:53.142Z,1.87
2019-02-11T19:18:20.685Z,1.70
2019-02-11T19:20:48.103Z,1.77
2019-02-11T19:23:15.527Z,2.80
2019-02-11T19:25:43.066Z,2.10
2019-02-11T19:28:10.486Z,1.80
2019-02-11T19:30:37.876Z,1.87
2019-02-11T19:33:05.294Z,1.50
2019-02-11T19:35:32.676Z,1.97
2019-02-11T19:38:00.143Z,1.87
2019-02-11T19:40:27.588Z,2.80
2019-02-11T19:56:25.747Z,1.70
2019-02-11T19:58:53.150Z,2.23
2019-02-11T20:01:21.045Z,1.60
2019-02-11T20:03:48.490Z,1.63
2019-02-11T20:06:15.870Z,1.63
2019-02-11T20:08:43.335Z,1.90
2019-02-11T20:11:10.748Z,1.67
2019-02-11T20:13:38.191Z,2.93
2019-02-11T20:16:05.603Z,1.87
2019-02-11T20:18:33.062Z,2.00
2019-02-11T20:21:00.481Z,2.07
2019-02-11T20:23:27.868Z,1.30
2019-02-11T20:25:55.292Z,1.80
2019-02-11T20:28:22.669Z,1.77
2019-02-11T20:30:50.084Z,1.43
2019-02-11T20:33:17.467Z,1.70
2019-02-11T20:35:44.881Z,1.60
2019-02-11T20:38:12.286Z,1.67
2019-02-11T20:40:39.695Z,1.77
2019-02-11T20:43:07.076Z,2.03
2019-02-11T20:45:34.490Z,2.60
2019-02-11T20:48:01.937Z,2.07
2019-02-11T20:50:29.346Z,2.00
2019-02-11T20:52:56.732Z,1.67
2019-02-11T20:55:24.162Z,1.50
2019-02-11T20:57:52.914Z,2.20
2019-02-11T21:00:21.705Z,2.23
2019-02-11T21:02:49.158Z,1.40
2019-02-11T21:05:16.642Z,1.97
2019-02-11T21:07:44.100Z,1.80
2019-02-11T21:10:12.691Z,1.70
2019-02-11T21:12:40.080Z,1.50
2019-02-11T21:15:09.078Z,1.80
2019-02-11T21:17:36.459Z,2.50
2019-02-11T21:20:05.410Z,2.00
2019-02-11T21:22:32.905Z,2.00
2019-02-11T21:25:00.296Z,1.70
2019-02-11T21:27:27.700Z,1.70
2019-02-11T21:29:55.079Z,1.80
2019-02-11T21:32:22.496Z,1.90
2019-02-11T21:34:49.882Z,2.47
2019-02-11T21:37:17.290Z,1.83
2019-02-11T21:39:44.685Z,2.20
2019-02-11T21:42:12.103Z,1.73
2019-02-11T21:44:39.488Z,2.10
2019-02-11T21:47:06.901Z,1.60
2019-02-11T21:49:34.298Z,2.10
2019-02-11T21:52:01.713Z,2.57
2019-02-11T21:54:29.123Z,1.67
2019-02-11T21:56:56.535Z,1.53
2019-02-11T21:59:23.920Z,1.70
2019-02-11T22:01:51.337Z,1.97
2019-02-11T22:04:18.709Z,1.90
2019-02-11T22:06:46.126Z,1.43
2019-02-11T22:09:13.515Z,2.07
2019-02-11T22:11:40.922Z,1.80
2019-02-11T22:14:08.314Z,2.50
2019-02-11T22:16:35.722Z,1.90
2019-02-11T22:19:03.111Z,2.90
2019-02-11T22:21:30.545Z,1.50
2019-02-11T22:23:57.925Z,1.80
2019-02-11T22:26:25.311Z,2.27
2019-02-11T22:28:52.719Z,2.37
2019-02-11T22:31:20.110Z,1.80
2019-02-11T22:33:47.911Z,1.77
2019-02-11T22:36:15.318Z,1.80
2019-02-11T22:38:42.760Z,1.80
2019-02-11T22:41:10.150Z,2.20
2019-02-11T22:43:37.671Z,1.70
2019-02-11T22:46:05.074Z,2.40
2019-02-11T22:48:32.500Z,1.80
2019-02-11T22:50:59.878Z,1.83
2019-02-11T22:53:27.312Z,4.40
2019-02-11T22:55:54.711Z,1.50
2019-02-11T22:58:22.121Z,1.93
2019-02-11T23:00:52.121Z,2.00
2019-02-11T23:03:19.602Z,1.80
2019-02-11T23:05:47.074Z,3.20
2019-02-11T23:08:14.489Z,2.00
2019-02-11T23:10:41.934Z,1.70
2019-02-11T23:13:09.354Z,1.27
2019-02-11T23:15:36.734Z,2.40
2019-02-11T23:18:04.214Z,2.00
2019-02-11T23:20:31.602Z,1.70
2019-02-11T23:22:59.010Z,1.83
2019-02-11T23:25:26.463Z,1.60
2019-02-11T23:27:53.874Z,1.87
2019-02-11T23:30:21.333Z,2.10
2019-02-11T23:32:49.010Z,1.73
2019-02-11T23:35:16.393Z,2.10
2019-02-11T23:37:43.806Z,1.70
2019-02-11T23:40:11.259Z,2.00
2019-02-11T23:42:38.649Z,1.60
2019-02-11T23:45:07.234Z,1.90
2019-02-11T23:47:34.613Z,1.77
2019-02-11T23:50:02.046Z,2.10
2019-02-11T23:52:29.437Z,2.30
2019-02-11T23:54:56.841Z,1.63
2019-02-11T23:57:24.222Z,1.77
2019-02-11T23:59:51.642Z,1.90
